Attalla, Alabama
Current Conditions -  °F | °C
As of 2:55 PM on Tuesday 21 Oct 2014 (Local Time) from KGAD Reporting Station
Few Clouds Few Clouds  
Wind Chill: 75°   Ceiling: Unl
Heat Index: 75°   Visibility: 10mi
Dew Point: 50°   Wind: 6mph
Humidity: 41%   Direction: 320°NW
Pressure: 29.99"   Gusts: 21mph
Location:  34.02°N, 86.09°W
Report Text: KGAD 211955Z 32005G18KT 10SM FEW050 24/10 A2999 RMK AO1
Loading
Personal Weather Stations






























Interactive Weather Map
Tropical Storm Tracking
New forecast layout! Learn more

10-Day Weather Forecast

Advertisements
Track Severe Weather on mobile